sensor_id;sensor_type;location;lat;lon;timestamp;P1;durP1;ratioP1;P2;durP2;ratioP2
43813;SDS011;29669;55.706;37.656;2022-09-17T00:01:17;8.10;;;6.05;;
43813;SDS011;29669;55.706;37.656;2022-09-17T00:04:08;10.27;;;6.35;;
43813;SDS011;29669;55.706;37.656;2022-09-17T00:06:56;10.15;;;6.65;;
43813;SDS011;29669;55.706;37.656;2022-09-17T00:09:45;7.97;;;6.35;;
43813;SDS011;29669;55.706;37.656;2022-09-17T00:12:33;9.13;;;6.57;;
43813;SDS011;29669;55.706;37.656;2022-09-17T00:15:21;8.82;;;6.10;;
43813;SDS011;29669;55.706;37.656;2022-09-17T00:18:10;12.85;;;6.43;;
43813;SDS011;29669;55.706;37.656;2022-09-17T00:20:58;12.23;;;6.10;;
43813;SDS011;29669;55.706;37.656;2022-09-17T00:23:47;7.70;;;6.30;;
43813;SDS011;29669;55.706;37.656;2022-09-17T00:26:35;9.25;;;5.95;;
43813;SDS011;29669;55.706;37.656;2022-09-17T00:29:24;7.53;;;5.80;;
43813;SDS011;29669;55.706;37.656;2022-09-17T00:32:12;7.32;;;5.30;;
43813;SDS011;29669;55.706;37.656;2022-09-17T00:35:00;8.98;;;5.43;;
43813;SDS011;29669;55.706;37.656;2022-09-17T00:37:49;7.10;;;5.72;;
43813;SDS011;29669;55.706;37.656;2022-09-17T00:40:37;7.88;;;5.53;;
43813;SDS011;29669;55.706;37.656;2022-09-17T00:46:34;8.07;;;5.65;;
43813;SDS011;29669;55.706;37.656;2022-09-17T00:49:27;8.18;;;5.63;;
43813;SDS011;29669;55.706;37.656;2022-09-17T00:52:18;7.75;;;4.97;;
43813;SDS011;29669;55.706;37.656;2022-09-17T00:58:00;6.15;;;5.35;;
43813;SDS011;29669;55.706;37.656;2022-09-17T01:00:50;8.68;;;5.40;;
43813;SDS011;29669;55.706;37.656;2022-09-17T01:03:38;12.68;;;5.32;;
43813;SDS011;29669;55.706;37.656;2022-09-17T01:16:05;5.75;;;5.10;;
43813;SDS011;29669;55.706;37.656;2022-09-17T01:22:19;5.95;;;5.05;;
43813;SDS011;29669;55.706;37.656;2022-09-17T01:25:30;7.60;;;4.60;;
43813;SDS011;29669;55.706;37.656;2022-09-17T01:29:11;7.05;;;5.55;;
43813;SDS011;29669;55.706;37.656;2022-09-17T01:35:33;8.87;;;4.93;;
43813;SDS011;29669;55.706;37.656;2022-09-17T01:38:35;9.77;;;5.38;;
43813;SDS011;29669;55.706;37.656;2022-09-17T01:41:39;5.38;;;4.78;;
43813;SDS011;29669;55.706;37.656;2022-09-17T01:44:36;8.13;;;4.60;;
43813;SDS011;29669;55.706;37.656;2022-09-17T01:47:43;6.28;;;4.63;;
43813;SDS011;29669;55.706;37.656;2022-09-17T01:51:02;5.10;;;4.22;;
43813;SDS011;29669;55.706;37.656;2022-09-17T01:54:04;6.55;;;4.40;;
43813;SDS011;29669;55.706;37.656;2022-09-17T01:56:55;8.13;;;4.30;;
43813;SDS011;29669;55.706;37.656;2022-09-17T01:59:50;4.63;;;3.97;;
43813;SDS011;29669;55.706;37.656;2022-09-17T02:05:54;8.38;;;4.43;;
43813;SDS011;29669;55.706;37.656;2022-09-17T02:08:59;6.68;;;3.85;;
43813;SDS011;29669;55.706;37.656;2022-09-17T02:12:01;4.85;;;3.97;;
43813;SDS011;29669;55.706;37.656;2022-09-17T02:14:56;6.18;;;3.65;;
43813;SDS011;29669;55.706;37.656;2022-09-17T02:17:54;4.78;;;3.35;;
43813;SDS011;29669;55.706;37.656;2022-09-17T02:24:15;7.95;;;3.80;;
43813;SDS011;29669;55.706;37.656;2022-09-17T02:27:12;6.07;;;3.90;;
43813;SDS011;29669;55.706;37.656;2022-09-17T02:30:22;7.13;;;4.18;;
43813;SDS011;29669;55.706;37.656;2022-09-17T02:33:11;12.25;;;4.20;;
43813;SDS011;29669;55.706;37.656;2022-09-17T02:36:01;5.45;;;3.50;;
43813;SDS011;29669;55.706;37.656;2022-09-17T02:38:53;4.57;;;3.85;;
43813;SDS011;29669;55.706;37.656;2022-09-17T02:45:14;5.00;;;3.30;;
43813;SDS011;29669;55.706;37.656;2022-09-17T02:48:23;3.65;;;3.13;;
43813;SDS011;29669;55.706;37.656;2022-09-17T02:54:30;4.03;;;3.30;;
43813;SDS011;29669;55.706;37.656;2022-09-17T02:57:32;8.55;;;3.55;;
43813;SDS011;29669;55.706;37.656;2022-09-17T03:00:29;6.25;;;3.85;;
43813;SDS011;29669;55.706;37.656;2022-09-17T03:06:17;6.50;;;3.67;;
43813;SDS011;29669;55.706;37.656;2022-09-17T03:09:05;7.97;;;3.40;;
43813;SDS011;29669;55.706;37.656;2022-09-17T03:11:53;4.07;;;3.42;;
43813;SDS011;29669;55.706;37.656;2022-09-17T03:14:41;6.40;;;4.50;;
43813;SDS011;29669;55.706;37.656;2022-09-17T03:17:29;5.82;;;3.60;;
43813;SDS011;29669;55.706;37.656;2022-09-17T03:20:17;7.53;;;4.40;;
43813;SDS011;29669;55.706;37.656;2022-09-17T03:23:05;5.30;;;3.05;;
43813;SDS011;29669;55.706;37.656;2022-09-17T03:25:53;3.95;;;3.50;;
43813;SDS011;29669;55.706;37.656;2022-09-17T03:28:41;5.38;;;3.85;;
43813;SDS011;29669;55.706;37.656;2022-09-17T03:31:29;6.82;;;3.53;;
43813;SDS011;29669;55.706;37.656;2022-09-17T03:34:18;4.95;;;4.13;;
43813;SDS011;29669;55.706;37.656;2022-09-17T03:37:07;4.88;;;4.20;;
43813;SDS011;29669;55.706;37.656;2022-09-17T03:39:55;7.65;;;4.15;;
43813;SDS011;29669;55.706;37.656;2022-09-17T03:42:43;5.55;;;3.60;;
43813;SDS011;29669;55.706;37.656;2022-09-17T03:45:31;8.05;;;5.10;;
43813;SDS011;29669;55.706;37.656;2022-09-17T03:48:20;5.38;;;4.07;;
43813;SDS011;29669;55.706;37.656;2022-09-17T03:51:08;9.80;;;4.53;;
43813;SDS011;29669;55.706;37.656;2022-09-17T03:53:57;6.95;;;3.92;;
43813;SDS011;29669;55.706;37.656;2022-09-17T03:56:45;7.75;;;4.50;;
43813;SDS011;29669;55.706;37.656;2022-09-17T03:59:33;6.82;;;4.50;;
43813;SDS011;29669;55.706;37.656;2022-09-17T04:02:21;5.07;;;3.70;;
43813;SDS011;29669;55.706;37.656;2022-09-17T04:05:09;5.90;;;4.00;;
43813;SDS011;29669;55.706;37.656;2022-09-17T04:07:57;6.95;;;3.70;;
43813;SDS011;29669;55.706;37.656;2022-09-17T04:10:45;7.15;;;4.50;;
43813;SDS011;29669;55.706;37.656;2022-09-17T04:13:34;5.32;;;3.90;;
43813;SDS011;29669;55.706;37.656;2022-09-17T04:16:22;7.18;;;3.72;;
43813;SDS011;29669;55.706;37.656;2022-09-17T04:19:10;7.43;;;4.25;;
43813;SDS011;29669;55.706;37.656;2022-09-17T04:21:58;5.00;;;4.13;;
43813;SDS011;29669;55.706;37.656;2022-09-17T04:24:46;5.78;;;4.47;;
43813;SDS011;29669;55.706;37.656;2022-09-17T04:27:34;7.38;;;4.22;;
43813;SDS011;29669;55.706;37.656;2022-09-17T04:30:22;6.85;;;3.78;;
43813;SDS011;29669;55.706;37.656;2022-09-17T04:33:10;8.98;;;3.67;;
43813;SDS011;29669;55.706;37.656;2022-09-17T04:35:58;4.55;;;3.63;;
43813;SDS011;29669;55.706;37.656;2022-09-17T04:38:47;9.13;;;4.60;;
43813;SDS011;29669;55.706;37.656;2022-09-17T04:41:35;6.47;;;3.78;;
43813;SDS011;29669;55.706;37.656;2022-09-17T04:44:23;5.75;;;4.00;;
43813;SDS011;29669;55.706;37.656;2022-09-17T04:47:11;5.00;;;3.40;;
43813;SDS011;29669;55.706;37.656;2022-09-17T04:49:59;6.60;;;4.15;;
43813;SDS011;29669;55.706;37.656;2022-09-17T04:52:48;5.05;;;3.47;;
43813;SDS011;29669;55.706;37.656;2022-09-17T04:55:36;4.35;;;3.53;;
43813;SDS011;29669;55.706;37.656;2022-09-17T04:58:26;4.10;;;3.40;;
43813;SDS011;29669;55.706;37.656;2022-09-17T05:01:15;5.03;;;3.35;;
43813;SDS011;29669;55.706;37.656;2022-09-17T05:04:05;4.30;;;3.40;;
43813;SDS011;29669;55.706;37.656;2022-09-17T05:06:53;7.97;;;3.33;;
43813;SDS011;29669;55.706;37.656;2022-09-17T05:09:40;5.95;;;3.47;;
43813;SDS011;29669;55.706;37.656;2022-09-17T05:12:29;3.28;;;2.97;;
43813;SDS011;29669;55.706;37.656;2022-09-17T05:15:22;5.70;;;3.15;;
43813;SDS011;29669;55.706;37.656;2022-09-17T05:18:11;4.53;;;3.13;;
43813;SDS011;29669;55.706;37.656;2022-09-17T05:21:00;4.93;;;3.15;;
43813;SDS011;29669;55.706;37.656;2022-09-17T05:23:48;4.57;;;3.90;;
43813;SDS011;29669;55.706;37.656;2022-09-17T05:26:36;7.03;;;3.63;;
43813;SDS011;29669;55.706;37.656;2022-09-17T05:29:24;7.43;;;3.75;;
43813;SDS011;29669;55.706;37.656;2022-09-17T05:32:11;8.45;;;3.53;;
43813;SDS011;29669;55.706;37.656;2022-09-17T05:34:59;10.10;;;4.93;;
43813;SDS011;29669;55.706;37.656;2022-09-17T05:37:55;7.10;;;3.92;;
43813;SDS011;29669;55.706;37.656;2022-09-17T05:40:45;7.22;;;2.92;;
43813;SDS011;29669;55.706;37.656;2022-09-17T05:43:33;4.47;;;2.95;;
43813;SDS011;29669;55.706;37.656;2022-09-17T05:46:21;6.13;;;3.40;;
43813;SDS011;29669;55.706;37.656;2022-09-17T05:49:09;5.60;;;3.30;;
43813;SDS011;29669;55.706;37.656;2022-09-17T05:51:57;4.40;;;3.25;;
43813;SDS011;29669;55.706;37.656;2022-09-17T05:54:46;6.95;;;3.58;;
43813;SDS011;29669;55.706;37.656;2022-09-17T05:57:34;6.72;;;3.38;;
43813;SDS011;29669;55.706;37.656;2022-09-17T06:00:22;5.60;;;4.30;;
43813;SDS011;29669;55.706;37.656;2022-09-17T06:03:10;14.13;;;3.97;;
43813;SDS011;29669;55.706;37.656;2022-09-17T06:05:59;5.60;;;3.85;;
43813;SDS011;29669;55.706;37.656;2022-09-17T06:08:47;7.25;;;3.80;;
43813;SDS011;29669;55.706;37.656;2022-09-17T06:11:35;5.38;;;3.97;;
43813;SDS011;29669;55.706;37.656;2022-09-17T06:14:24;3.85;;;3.47;;
43813;SDS011;29669;55.706;37.656;2022-09-17T06:17:12;7.93;;;3.47;;
43813;SDS011;29669;55.706;37.656;2022-09-17T06:20:00;5.15;;;3.38;;
43813;SDS011;29669;55.706;37.656;2022-09-17T06:22:54;8.10;;;3.70;;
43813;SDS011;29669;55.706;37.656;2022-09-17T06:25:43;5.60;;;3.45;;
43813;SDS011;29669;55.706;37.656;2022-09-17T06:28:46;7.53;;;4.40;;
43813;SDS011;29669;55.706;37.656;2022-09-17T06:31:34;3.67;;;3.22;;
43813;SDS011;29669;55.706;37.656;2022-09-17T06:34:22;4.35;;;3.10;;
43813;SDS011;29669;55.706;37.656;2022-09-17T06:37:12;4.40;;;3.00;;
43813;SDS011;29669;55.706;37.656;2022-09-17T06:40:00;10.52;;;4.30;;
43813;SDS011;29669;55.706;37.656;2022-09-17T06:42:49;5.47;;;2.97;;
43813;SDS011;29669;55.706;37.656;2022-09-17T06:45:37;5.65;;;3.17;;
43813;SDS011;29669;55.706;37.656;2022-09-17T06:48:26;5.85;;;3.00;;
43813;SDS011;29669;55.706;37.656;2022-09-17T06:51:16;6.28;;;3.00;;
43813;SDS011;29669;55.706;37.656;2022-09-17T06:54:05;6.72;;;3.00;;
43813;SDS011;29669;55.706;37.656;2022-09-17T06:56:52;5.75;;;4.10;;
43813;SDS011;29669;55.706;37.656;2022-09-17T06:59:41;7.80;;;3.25;;
43813;SDS011;29669;55.706;37.656;2022-09-17T07:02:29;7.22;;;2.47;;
43813;SDS011;29669;55.706;37.656;2022-09-17T07:05:17;4.63;;;2.40;;
43813;SDS011;29669;55.706;37.656;2022-09-17T07:08:09;6.90;;;3.85;;
43813;SDS011;29669;55.706;37.656;2022-09-17T07:10:57;5.60;;;3.45;;
43813;SDS011;29669;55.706;37.656;2022-09-17T07:13:46;4.85;;;2.20;;
43813;SDS011;29669;55.706;37.656;2022-09-17T07:16:34;5.38;;;3.15;;
43813;SDS011;29669;55.706;37.656;2022-09-17T07:19:25;5.97;;;2.25;;
43813;SDS011;29669;55.706;37.656;2022-09-17T07:22:13;3.55;;;1.98;;
43813;SDS011;29669;55.706;37.656;2022-09-17T07:25:01;3.72;;;2.65;;
43813;SDS011;29669;55.706;37.656;2022-09-17T07:27:50;3.97;;;2.20;;
43813;SDS011;29669;55.706;37.656;2022-09-17T07:30:38;6.63;;;2.78;;
43813;SDS011;29669;55.706;37.656;2022-09-17T07:33:26;8.00;;;2.20;;
43813;SDS011;29669;55.706;37.656;2022-09-17T07:36:14;6.60;;;2.17;;
43813;SDS011;29669;55.706;37.656;2022-09-17T07:39:04;4.80;;;2.30;;
43813;SDS011;29669;55.706;37.656;2022-09-17T07:41:52;9.75;;;2.25;;
43813;SDS011;29669;55.706;37.656;2022-09-17T07:44:40;2.58;;;2.00;;
43813;SDS011;29669;55.706;37.656;2022-09-17T07:47:28;6.85;;;2.00;;
43813;SDS011;29669;55.706;37.656;2022-09-17T07:50:16;4.30;;;2.13;;
43813;SDS011;29669;55.706;37.656;2022-09-17T07:53:04;5.70;;;2.20;;
43813;SDS011;29669;55.706;37.656;2022-09-17T07:55:57;6.45;;;2.10;;
43813;SDS011;29669;55.706;37.656;2022-09-17T07:58:46;4.80;;;2.22;;
43813;SDS011;29669;55.706;37.656;2022-09-17T08:01:34;9.75;;;2.85;;
43813;SDS011;29669;55.706;37.656;2022-09-17T08:04:23;5.35;;;2.17;;
43813;SDS011;29669;55.706;37.656;2022-09-17T08:07:11;5.60;;;2.45;;
43813;SDS011;29669;55.706;37.656;2022-09-17T08:10:00;6.00;;;2.40;;
43813;SDS011;29669;55.706;37.656;2022-09-17T08:12:50;6.82;;;2.70;;
43813;SDS011;29669;55.706;37.656;2022-09-17T08:15:42;4.70;;;1.88;;
43813;SDS011;29669;55.706;37.656;2022-09-17T08:18:31;4.70;;;2.00;;
43813;SDS011;29669;55.706;37.656;2022-09-17T08:21:20;5.88;;;2.80;;
43813;SDS011;29669;55.706;37.656;2022-09-17T08:24:08;4.90;;;2.10;;
43813;SDS011;29669;55.706;37.656;2022-09-17T08:26:56;6.47;;;1.95;;
43813;SDS011;29669;55.706;37.656;2022-09-17T08:29:44;6.38;;;1.73;;
43813;SDS011;29669;55.706;37.656;2022-09-17T08:32:33;4.07;;;1.92;;
43813;SDS011;29669;55.706;37.656;2022-09-17T08:35:21;3.30;;;1.95;;
43813;SDS011;29669;55.706;37.656;2022-09-17T08:38:08;5.30;;;1.67;;
43813;SDS011;29669;55.706;37.656;2022-09-17T08:41:09;6.63;;;2.45;;
43813;SDS011;29669;55.706;37.656;2022-09-17T08:44:37;7.93;;;2.25;;
43813;SDS011;29669;55.706;37.656;2022-09-17T08:47:34;4.68;;;2.13;;
43813;SDS011;29669;55.706;37.656;2022-09-17T08:50:33;4.00;;;2.10;;
43813;SDS011;29669;55.706;37.656;2022-09-17T08:53:30;4.18;;;1.83;;
43813;SDS011;29669;55.706;37.656;2022-09-17T08:56:28;6.57;;;2.65;;
43813;SDS011;29669;55.706;37.656;2022-09-17T08:59:25;1.50;;;1.40;;
43813;SDS011;29669;55.706;37.656;2022-09-17T09:08:49;3.50;;;1.92;;
43813;SDS011;29669;55.706;37.656;2022-09-17T09:11:55;7.47;;;1.80;;
43813;SDS011;29669;55.706;37.656;2022-09-17T09:14:52;6.28;;;1.65;;
43813;SDS011;29669;55.706;37.656;2022-09-17T09:17:45;3.85;;;1.98;;
43813;SDS011;29669;55.706;37.656;2022-09-17T09:20:39;5.78;;;1.77;;
43813;SDS011;29669;55.706;37.656;2022-09-17T09:26:43;5.50;;;1.52;;
43813;SDS011;29669;55.706;37.656;2022-09-17T09:29:41;5.68;;;1.67;;
43813;SDS011;29669;55.706;37.656;2022-09-17T09:35:41;3.08;;;1.67;;
43813;SDS011;29669;55.706;37.656;2022-09-17T09:38:39;3.45;;;1.50;;
43813;SDS011;29669;55.706;37.656;2022-09-17T09:41:35;5.55;;;1.55;;
43813;SDS011;29669;55.706;37.656;2022-09-17T09:44:30;2.97;;;1.63;;
43813;SDS011;29669;55.706;37.656;2022-09-17T09:47:30;4.35;;;1.80;;
43813;SDS011;29669;55.706;37.656;2022-09-17T09:50:54;5.07;;;1.70;;
43813;SDS011;29669;55.706;37.656;2022-09-17T09:56:57;3.42;;;1.67;;
43813;SDS011;29669;55.706;37.656;2022-09-17T09:59:50;2.72;;;1.70;;
43813;SDS011;29669;55.706;37.656;2022-09-17T10:03:12;3.70;;;1.52;;
43813;SDS011;29669;55.706;37.656;2022-09-17T10:06:19;2.38;;;1.70;;
43813;SDS011;29669;55.706;37.656;2022-09-17T10:09:08;1.80;;;1.70;;
43813;SDS011;29669;55.706;37.656;2022-09-17T10:12:09;2.63;;;1.40;;
43813;SDS011;29669;55.706;37.656;2022-09-17T10:18:30;4.82;;;1.77;;
43813;SDS011;29669;55.706;37.656;2022-09-17T10:27:13;3.30;;;1.40;;
43813;SDS011;29669;55.706;37.656;2022-09-17T10:33:15;3.38;;;1.30;;
43813;SDS011;29669;55.706;37.656;2022-09-17T10:36:12;2.15;;;1.40;;
43813;SDS011;29669;55.706;37.656;2022-09-17T10:42:30;3.55;;;1.20;;
43813;SDS011;29669;55.706;37.656;2022-09-17T10:45:28;5.30;;;2.05;;
43813;SDS011;29669;55.706;37.656;2022-09-17T10:48:18;3.95;;;1.58;;
43813;SDS011;29669;55.706;37.656;2022-09-17T10:51:08;3.53;;;1.80;;
43813;SDS011;29669;55.706;37.656;2022-09-17T10:56:53;4.30;;;1.30;;
43813;SDS011;29669;55.706;37.656;2022-09-17T11:00:07;4.85;;;2.00;;
43813;SDS011;29669;55.706;37.656;2022-09-17T11:03:05;4.28;;;1.55;;
43813;SDS011;29669;55.706;37.656;2022-09-17T11:18:34;2.70;;;1.73;;
43813;SDS011;29669;55.706;37.656;2022-09-17T11:27:33;3.47;;;1.70;;
43813;SDS011;29669;55.706;37.656;2022-09-17T11:37:07;3.45;;;2.05;;
43813;SDS011;29669;55.706;37.656;2022-09-17T11:42:53;3.40;;;1.80;;
43813;SDS011;29669;55.706;37.656;2022-09-17T11:46:06;4.88;;;2.10;;
43813;SDS011;29669;55.706;37.656;2022-09-17T12:01:46;3.08;;;1.70;;
43813;SDS011;29669;55.706;37.656;2022-09-17T12:07:39;4.60;;;2.22;;
43813;SDS011;29669;55.706;37.656;2022-09-17T12:16:44;3.05;;;1.50;;
43813;SDS011;29669;55.706;37.656;2022-09-17T12:19:36;4.68;;;1.70;;
43813;SDS011;29669;55.706;37.656;2022-09-17T12:22:29;1.95;;;1.63;;
43813;SDS011;29669;55.706;37.656;2022-09-17T12:25:27;8.23;;;1.88;;
43813;SDS011;29669;55.706;37.656;2022-09-17T12:28:31;3.72;;;1.60;;
43813;SDS011;29669;55.706;37.656;2022-09-17T12:31:31;3.28;;;1.73;;
43813;SDS011;29669;55.706;37.656;2022-09-17T12:37:59;2.85;;;1.60;;
43813;SDS011;29669;55.706;37.656;2022-09-17T12:41:19;3.97;;;1.70;;
43813;SDS011;29669;55.706;37.656;2022-09-17T12:47:54;2.70;;;1.65;;
43813;SDS011;29669;55.706;37.656;2022-09-17T12:53:54;4.32;;;1.80;;
43813;SDS011;29669;55.706;37.656;2022-09-17T12:59:52;4.22;;;1.88;;
43813;SDS011;29669;55.706;37.656;2022-09-17T13:06:08;7.25;;;1.98;;
43813;SDS011;29669;55.706;37.656;2022-09-17T13:15:34;2.90;;;1.60;;
43813;SDS011;29669;55.706;37.656;2022-09-17T13:18:32;5.55;;;1.60;;
43813;SDS011;29669;55.706;37.656;2022-09-17T13:21:39;3.53;;;2.13;;
43813;SDS011;29669;55.706;37.656;2022-09-17T13:24:37;2.55;;;1.60;;
43813;SDS011;29669;55.706;37.656;2022-09-17T13:27:26;4.78;;;1.98;;
43813;SDS011;29669;55.706;37.656;2022-09-17T13:30:16;4.85;;;1.73;;
43813;SDS011;29669;55.706;37.656;2022-09-17T13:33:07;4.28;;;2.00;;
43813;SDS011;29669;55.706;37.656;2022-09-17T13:35:57;5.07;;;2.22;;
43813;SDS011;29669;55.706;37.656;2022-09-17T13:38:45;9.20;;;2.53;;
43813;SDS011;29669;55.706;37.656;2022-09-17T13:41:40;8.50;;;2.35;;
43813;SDS011;29669;55.706;37.656;2022-09-17T13:44:28;4.30;;;1.50;;
43813;SDS011;29669;55.706;37.656;2022-09-17T13:47:32;4.93;;;2.55;;
43813;SDS011;29669;55.706;37.656;2022-09-17T13:50:24;8.65;;;3.58;;
43813;SDS011;29669;55.706;37.656;2022-09-17T13:53:24;7.78;;;3.00;;
43813;SDS011;29669;55.706;37.656;2022-09-17T13:56:47;2.95;;;2.05;;
43813;SDS011;29669;55.706;37.656;2022-09-17T13:59:37;2.78;;;1.73;;
43813;SDS011;29669;55.706;37.656;2022-09-17T14:02:39;8.00;;;2.22;;
43813;SDS011;29669;55.706;37.656;2022-09-17T14:05:31;5.10;;;2.10;;
43813;SDS011;29669;55.706;37.656;2022-09-17T14:09:12;7.82;;;1.92;;
43813;SDS011;29669;55.706;37.656;2022-09-17T14:17:47;8.23;;;2.10;;
43813;SDS011;29669;55.706;37.656;2022-09-17T14:20:40;3.35;;;1.90;;
43813;SDS011;29669;55.706;37.656;2022-09-17T14:23:28;4.32;;;2.40;;
43813;SDS011;29669;55.706;37.656;2022-09-17T14:29:39;6.25;;;1.70;;
43813;SDS011;29669;55.706;37.656;2022-09-17T14:35:59;3.85;;;2.47;;
43813;SDS011;29669;55.706;37.656;2022-09-17T14:38:55;4.60;;;2.00;;
43813;SDS011;29669;55.706;37.656;2022-09-17T14:41:43;4.75;;;1.85;;
43813;SDS011;29669;55.706;37.656;2022-09-17T14:44:32;9.10;;;2.33;;
43813;SDS011;29669;55.706;37.656;2022-09-17T14:47:22;10.35;;;2.53;;
43813;SDS011;29669;55.706;37.656;2022-09-17T14:50:20;5.03;;;2.25;;
43813;SDS011;29669;55.706;37.656;2022-09-17T14:53:16;8.85;;;2.80;;
43813;SDS011;29669;55.706;37.656;2022-09-17T14:58:56;8.20;;;2.60;;
43813;SDS011;29669;55.706;37.656;2022-09-17T15:01:45;4.15;;;3.03;;
43813;SDS011;29669;55.706;37.656;2022-09-17T15:04:34;9.50;;;2.20;;
43813;SDS011;29669;55.706;37.656;2022-09-17T15:07:22;2.55;;;2.20;;
43813;SDS011;29669;55.706;37.656;2022-09-17T15:10:13;6.38;;;2.40;;
43813;SDS011;29669;55.706;37.656;2022-09-17T15:13:03;5.55;;;2.40;;
43813;SDS011;29669;55.706;37.656;2022-09-17T15:19:09;4.80;;;2.35;;
43813;SDS011;29669;55.706;37.656;2022-09-17T15:22:05;4.00;;;2.20;;
43813;SDS011;29669;55.706;37.656;2022-09-17T15:25:23;6.40;;;2.58;;
43813;SDS011;29669;55.706;37.656;2022-09-17T15:28:27;5.55;;;2.45;;
43813;SDS011;29669;55.706;37.656;2022-09-17T15:31:17;3.60;;;2.40;;
43813;SDS011;29669;55.706;37.656;2022-09-17T15:34:05;4.43;;;2.10;;
43813;SDS011;29669;55.706;37.656;2022-09-17T15:40:04;8.13;;;2.10;;
43813;SDS011;29669;55.706;37.656;2022-09-17T15:45:49;5.20;;;2.47;;
43813;SDS011;29669;55.706;37.656;2022-09-17T15:48:37;2.70;;;2.05;;
43813;SDS011;29669;55.706;37.656;2022-09-17T15:51:30;5.07;;;2.10;;
43813;SDS011;29669;55.706;37.656;2022-09-17T15:54:30;3.40;;;1.50;;
43813;SDS011;29669;55.706;37.656;2022-09-17T15:57:19;4.22;;;2.45;;
43813;SDS011;29669;55.706;37.656;2022-09-17T16:00:12;3.78;;;2.00;;
43813;SDS011;29669;55.706;37.656;2022-09-17T16:03:18;4.28;;;1.60;;
43813;SDS011;29669;55.706;37.656;2022-09-17T16:09:40;3.05;;;2.20;;
43813;SDS011;29669;55.706;37.656;2022-09-17T16:12:29;2.97;;;2.00;;
43813;SDS011;29669;55.706;37.656;2022-09-17T16:15:17;3.97;;;1.98;;
43813;SDS011;29669;55.706;37.656;2022-09-17T16:18:05;4.85;;;2.63;;
43813;SDS011;29669;55.706;37.656;2022-09-17T16:20:53;4.65;;;2.67;;
43813;SDS011;29669;55.706;37.656;2022-09-17T16:23:41;3.85;;;3.08;;
43813;SDS011;29669;55.706;37.656;2022-09-17T16:26:30;10.45;;;2.80;;
43813;SDS011;29669;55.706;37.656;2022-09-17T16:29:21;3.67;;;2.83;;
43813;SDS011;29669;55.706;37.656;2022-09-17T16:32:09;6.93;;;2.78;;
43813;SDS011;29669;55.706;37.656;2022-09-17T16:34:57;4.05;;;2.78;;
43813;SDS011;29669;55.706;37.656;2022-09-17T16:37:52;8.75;;;3.05;;
43813;SDS011;29669;55.706;37.656;2022-09-17T16:40:43;7.05;;;3.40;;
43813;SDS011;29669;55.706;37.656;2022-09-17T16:43:33;4.40;;;3.25;;
43813;SDS011;29669;55.706;37.656;2022-09-17T16:46:21;8.60;;;3.28;;
43813;SDS011;29669;55.706;37.656;2022-09-17T16:49:09;5.70;;;3.30;;
43813;SDS011;29669;55.706;37.656;2022-09-17T16:51:57;4.55;;;2.25;;
43813;SDS011;29669;55.706;37.656;2022-09-17T16:54:45;7.70;;;2.90;;
43813;SDS011;29669;55.706;37.656;2022-09-17T16:57:33;5.57;;;2.67;;
43813;SDS011;29669;55.706;37.656;2022-09-17T17:00:21;4.93;;;2.67;;
43813;SDS011;29669;55.706;37.656;2022-09-17T17:03:12;4.18;;;2.67;;
43813;SDS011;29669;55.706;37.656;2022-09-17T17:06:01;7.82;;;3.30;;
43813;SDS011;29669;55.706;37.656;2022-09-17T17:08:50;4.85;;;2.97;;
43813;SDS011;29669;55.706;37.656;2022-09-17T17:11:38;6.05;;;2.80;;
43813;SDS011;29669;55.706;37.656;2022-09-17T17:14:26;4.18;;;2.90;;
43813;SDS011;29669;55.706;37.656;2022-09-17T17:17:14;4.13;;;2.75;;
43813;SDS011;29669;55.706;37.656;2022-09-17T17:20:04;5.07;;;3.17;;
43813;SDS011;29669;55.706;37.656;2022-09-17T17:22:56;5.70;;;2.85;;
43813;SDS011;29669;55.706;37.656;2022-09-17T17:25:44;6.20;;;3.17;;
43813;SDS011;29669;55.706;37.656;2022-09-17T17:28:33;6.30;;;3.88;;
43813;SDS011;29669;55.706;37.656;2022-09-17T17:31:21;7.13;;;2.92;;
43813;SDS011;29669;55.706;37.656;2022-09-17T17:34:10;5.40;;;2.95;;
43813;SDS011;29669;55.706;37.656;2022-09-17T17:36:57;5.15;;;2.90;;
43813;SDS011;29669;55.706;37.656;2022-09-17T17:39:45;4.53;;;3.05;;
43813;SDS011;29669;55.706;37.656;2022-09-17T17:42:33;7.68;;;3.10;;
43813;SDS011;29669;55.706;37.656;2022-09-17T17:45:24;5.22;;;3.03;;
43813;SDS011;29669;55.706;37.656;2022-09-17T17:48:12;4.97;;;2.97;;
43813;SDS011;29669;55.706;37.656;2022-09-17T17:51:07;4.57;;;2.95;;
43813;SDS011;29669;55.706;37.656;2022-09-17T17:53:56;6.53;;;2.80;;
43813;SDS011;29669;55.706;37.656;2022-09-17T17:56:44;6.03;;;3.63;;
43813;SDS011;29669;55.706;37.656;2022-09-17T17:59:32;9.15;;;3.10;;
43813;SDS011;29669;55.706;37.656;2022-09-17T18:02:20;7.63;;;3.28;;
43813;SDS011;29669;55.706;37.656;2022-09-17T18:05:08;10.23;;;5.25;;
43813;SDS011;29669;55.706;37.656;2022-09-17T18:07:58;5.68;;;2.80;;
43813;SDS011;29669;55.706;37.656;2022-09-17T18:10:53;7.75;;;3.70;;
43813;SDS011;29669;55.706;37.656;2022-09-17T18:13:42;7.25;;;3.70;;
43813;SDS011;29669;55.706;37.656;2022-09-17T18:16:30;6.97;;;3.70;;
43813;SDS011;29669;55.706;37.656;2022-09-17T18:19:18;5.95;;;2.92;;
43813;SDS011;29669;55.706;37.656;2022-09-17T18:22:06;5.05;;;2.80;;
43813;SDS011;29669;55.706;37.656;2022-09-17T18:24:54;4.30;;;2.58;;
43813;SDS011;29669;55.706;37.656;2022-09-17T18:27:42;3.42;;;2.50;;
43813;SDS011;29669;55.706;37.656;2022-09-17T18:30:30;4.88;;;3.00;;
43813;SDS011;29669;55.706;37.656;2022-09-17T18:33:19;3.80;;;3.10;;
43813;SDS011;29669;55.706;37.656;2022-09-17T18:36:10;7.70;;;3.25;;
43813;SDS011;29669;55.706;37.656;2022-09-17T18:38:59;7.68;;;3.50;;
43813;SDS011;29669;55.706;37.656;2022-09-17T18:42:08;4.63;;;3.03;;
43813;SDS011;29669;55.706;37.656;2022-09-17T18:44:56;5.38;;;3.38;;
43813;SDS011;29669;55.706;37.656;2022-09-17T18:47:44;5.95;;;2.78;;
43813;SDS011;29669;55.706;37.656;2022-09-17T18:50:31;6.88;;;2.63;;
43813;SDS011;29669;55.706;37.656;2022-09-17T18:53:20;8.30;;;4.40;;
43813;SDS011;29669;55.706;37.656;2022-09-17T18:56:15;6.90;;;4.70;;
43813;SDS011;29669;55.706;37.656;2022-09-17T18:59:05;5.95;;;3.40;;
43813;SDS011;29669;55.706;37.656;2022-09-17T19:01:54;7.88;;;3.17;;
43813;SDS011;29669;55.706;37.656;2022-09-17T19:04:42;4.28;;;2.90;;
43813;SDS011;29669;55.706;37.656;2022-09-17T19:07:30;8.32;;;4.35;;
43813;SDS011;29669;55.706;37.656;2022-09-17T19:10:18;5.78;;;3.28;;
43813;SDS011;29669;55.706;37.656;2022-09-17T19:13:06;5.78;;;3.85;;
43813;SDS011;29669;55.706;37.656;2022-09-17T19:15:57;5.75;;;3.28;;
43813;SDS011;29669;55.706;37.656;2022-09-17T19:18:46;6.15;;;3.20;;
43813;SDS011;29669;55.706;37.656;2022-09-17T19:21:34;10.70;;;3.58;;
43813;SDS011;29669;55.706;37.656;2022-09-17T19:24:22;7.60;;;3.45;;
43813;SDS011;29669;55.706;37.656;2022-09-17T19:27:10;5.32;;;3.00;;
43813;SDS011;29669;55.706;37.656;2022-09-17T19:29:57;6.75;;;3.72;;
43813;SDS011;29669;55.706;37.656;2022-09-17T19:32:47;8.63;;;4.03;;
43813;SDS011;29669;55.706;37.656;2022-09-17T19:35:34;14.50;;;3.60;;
43813;SDS011;29669;55.706;37.656;2022-09-17T19:38:24;4.22;;;3.22;;
43813;SDS011;29669;55.706;37.656;2022-09-17T19:41:13;6.80;;;4.05;;
43813;SDS011;29669;55.706;37.656;2022-09-17T19:44:02;6.57;;;3.75;;
43813;SDS011;29669;55.706;37.656;2022-09-17T19:46:50;5.10;;;3.33;;
43813;SDS011;29669;55.706;37.656;2022-09-17T19:49:39;5.65;;;3.40;;
43813;SDS011;29669;55.706;37.656;2022-09-17T19:52:27;6.63;;;3.72;;
43813;SDS011;29669;55.706;37.656;2022-09-17T19:55:15;5.10;;;3.40;;